Time;durP1;ratioP1;P1;durP2;ratioP2;P2;SDS_P1;SDS_P2;PMS_P1;PMS_P2;Temp;Humidity;BMP_temperature;BMP_pressure;BME280_temperature;BME280_humidity;BME280_pressure;Samples;Min_cycle;Max_cycle;Signal;HPM_P1;HPM_P2
2021/04/11 00:02:00;;;;;;;8.60;4.38;;;;;;;2.96;75.12;101297.06;5074117;28;20048;-73
2021/04/11 00:04:25;;;;;;;6.38;4.00;;;;;;;3.25;72.21;101293.47;5074002;28;20040;-73
2021/04/11 00:06:51;;;;;;;6.72;4.00;;;;;;;3.10;72.38;101256.91;5073720;28;20020;-73
2021/04/11 00:09:16;;;;;;;6.38;3.50;;;;;;;3.04;75.91;101284.72;5073603;28;20032;-73
2021/04/11 00:11:42;;;;;;;7.82;4.03;;;;;;;2.84;76.87;101294.91;5073680;28;20408;-73
2021/04/11 00:14:07;;;;;;;7.22;3.70;;;;;;;2.96;74.81;101299.66;5073469;28;20464;-73
2021/04/11 00:16:33;;;;;;;7.65;4.40;;;;;;;3.07;72.73;101299.28;5073516;28;20381;-73
2021/04/11 00:18:59;;;;;;;8.18;4.88;;;;;;;2.28;76.26;101303.59;5073186;28;20440;-73
2021/04/11 00:21:24;;;;;;;11.32;5.03;;;;;;;2.25;75.90;101258.88;5073478;28;20441;-73
2021/04/11 00:23:50;;;;;;;8.30;4.57;;;;;;;2.43;75.05;101263.47;5073515;28;20051;-73
2021/04/11 00:26:15;;;;;;;9.82;5.90;;;;;;;2.24;76.83;101283.88;5073156;28;20029;-73
2021/04/11 00:28:40;;;;;;;9.52;4.85;;;;;;;2.26;75.38;101242.44;5073284;28;20028;-73
2021/04/11 00:31:06;;;;;;;8.85;5.38;;;;;;;2.35;76.61;101297.31;5073328;28;20047;-73
2021/04/11 00:33:31;;;;;;;12.45;4.20;;;;;;;1.88;79.92;101306.53;5072865;28;20055;-73
2021/04/11 00:35:58;;;;;;;6.72;3.97;;;;;;;1.87;79.14;101264.31;5073228;28;20035;-73
2021/04/11 00:38:25;;;;;;;8.40;3.95;;;;;;;1.70;84.03;101269.16;5073432;28;20111;-73
2021/04/11 00:40:51;;;;;;;9.23;5.10;;;;;;;1.88;81.85;101286.69;5073322;28;20032;-73
2021/04/11 00:43:18;;;;;;;10.30;4.78;;;;;;;1.63;84.52;101263.31;5073198;28;20025;-73
2021/04/11 00:45:46;;;;;;;8.32;4.32;;;;;;;1.85;82.09;101293.69;5072980;28;20028;-73
2021/04/11 00:48:14;;;;;;;7.25;4.15;;;;;;;1.53;84.17;101253.28;5072708;28;20032;-73
2021/04/11 00:50:40;;;;;;;8.40;4.35;;;;;;;1.65;83.01;101284.78;5071712;28;20024;-73
2021/04/11 00:53:06;;;;;;;8.65;4.78;;;;;;;1.45;84.82;101276.72;5073133;28;20503;-73
2021/04/11 00:55:32;;;;;;;7.18;3.70;;;;;;;1.71;83.14;101293.25;5073042;28;20048;-73
2021/04/11 00:57:58;;;;;;;5.88;3.47;;;;;;;1.58;82.17;101252.25;5072794;28;20126;-73
2021/04/11 01:00:35;;;;;;;16.42;4.43;;;;;;;1.50;86.70;101284.38;5088545;28;20448;-73
2021/04/11 01:03:01;;;;;;;9.15;3.55;;;;;;;1.31;84.17;101273.69;5072893;28;20037;-73
2021/04/11 01:05:30;;;;;;;8.00;4.05;;;;;;;1.12;91.30;101252.72;5072844;28;20052;-73
2021/04/11 01:07:58;;;;;;;6.47;4.18;;;;;;;1.34;89.68;101282.19;5072954;28;20048;-73
2021/04/11 01:10:32;;;;;;;7.60;3.95;;;;;;;1.26;88.80;101291.06;5072635;28;20123;-73
2021/04/11 01:12:57;;;;;;;8.05;3.28;;;;;;;1.24;88.64;101285.09;5088109;28;20456;-73
2021/04/11 01:15:30;;;;;;;8.32;3.75;;;;;;;1.14;86.77;101277.56;5072561;28;20121;-73
2021/04/11 01:17:56;;;;;;;6.15;3.78;;;;;;;1.19;89.11;101295.53;5073070;28;20025;-73
2021/04/11 01:20:24;;;;;;;9.27;3.67;;;;;;;1.31;89.07;101291.78;5072516;28;20036;-73
2021/04/11 01:23:05;;;;;;;5.85;3.35;;;;;;;1.31;85.52;101289.19;5072444;28;20476;-73
2021/04/11 01:25:33;;;;;;;8.98;3.13;;;;;;;1.36;86.78;101288.19;5072919;28;20384;-73
2021/04/11 01:28:01;;;;;;;11.30;3.80;;;;;;;0.92;87.59;101258.41;5071121;28;20166;-73
2021/04/11 01:30:31;;;;;;;5.72;3.38;;;;;;;1.17;85.80;101293.00;5072717;28;20552;-73
2021/04/11 01:32:58;;;;;;;7.88;3.58;;;;;;;1.04;86.47;101252.03;5072361;28;20438;-73
2021/04/11 01:35:26;;;;;;;5.88;3.38;;;;;;;0.95;94.38;101266.06;5072345;28;20024;-73
2021/04/11 01:37:55;;;;;;;8.30;3.92;;;;;;;0.92;95.91;101285.06;5072265;28;20468;-73
2021/04/11 01:40:32;;;;;;;9.88;4.30;;;;;;;0.76;92.66;101250.19;5072310;28;20496;-73
2021/04/11 01:42:59;;;;;;;6.88;3.33;;;;;;;0.83;94.91;101279.28;5072277;28;20028;-73
2021/04/11 01:45:25;;;;;;;6.60;3.63;;;;;;;0.66;93.05;101233.25;5072553;28;20024;-73
2021/04/11 01:47:51;;;;;;;6.93;3.78;;;;;;;0.83;97.72;101267.22;5071467;28;20021;-73
2021/04/11 01:50:16;;;;;;;7.45;3.92;;;;;;;0.80;93.87;101261.28;5072122;28;20035;-73
2021/04/11 01:52:42;;;;;;;6.30;3.85;;;;;;;0.89;91.52;101274.81;5072119;28;20036;-73
2021/04/11 01:55:10;;;;;;;8.02;5.60;;;;;;;0.67;91.50;101238.38;5072171;28;20025;-73
2021/04/11 01:57:38;;;;;;;7.75;4.80;;;;;;;0.72;95.63;101269.22;5072011;28;20112;-73
2021/04/11 02:00:33;;;;;;;5.93;3.47;;;;;;;0.38;100.00;101272.63;5072125;28;20060;-73
2021/04/11 02:03:06;;;;;;;10.25;4.07;;;;;;;0.26;100.00;101269.47;5068191;28;20041;-73
2021/04/11 02:05:32;;;;;;;6.78;3.78;;;;;;;0.03;100.00;101268.25;5071905;28;20407;-73
2021/04/11 02:07:58;;;;;;;8.30;3.78;;;;;;;-0.12;100.00;101274.63;5072028;28;20056;-73
2021/04/11 02:10:29;;;;;;;7.20;3.35;;;;;;;0.06;100.00;101275.94;5072094;28;20480;-73
2021/04/11 02:12:55;;;;;;;6.50;3.67;;;;;;;0.14;100.00;101268.06;5071865;28;20107;-73
2021/04/11 02:15:33;;;;;;;8.75;3.90;;;;;;;0.21;100.00;101267.88;5072956;28;20514;-73
2021/04/11 02:17:58;;;;;;;7.40;3.50;;;;;;;0.13;100.00;101274.91;5076338;28;20021;-73
2021/04/11 02:20:27;;;;;;;5.55;3.53;;;;;;;0.10;100.00;101238.91;5075824;28;20062;-73
2021/04/11 02:22:54;;;;;;;6.47;3.95;;;;;;;0.22;100.00;101240.34;5075860;28;20082;-73
2021/04/11 02:25:22;;;;;;;9.32;3.55;;;;;;;0.35;100.00;101254.66;5074227;28;20115;-73
2021/04/11 02:27:48;;;;;;;7.88;3.45;;;;;;;0.31;100.00;101239.28;5035698;28;20030;-73
2021/04/11 02:30:17;;;;;;;7.72;3.20;;;;;;;0.29;100.00;101288.31;5035571;28;20388;-73
2021/04/11 02:32:42;;;;;;;7.15;3.70;;;;;;;0.05;100.00;101256.19;5034299;28;20033;-73
2021/04/11 02:35:13;;;;;;;6.05;3.88;;;;;;;0.22;100.00;101286.75;5035533;28;20432;-73
2021/04/11 02:37:41;;;;;;;6.47;3.63;;;;;;;0.17;100.00;101286.00;5035813;28;20034;-73
2021/04/11 02:40:09;;;;;;;6.88;3.95;;;;;;;-0.08;100.00;101257.34;5035558;28;20029;-72
2021/04/11 02:42:35;;;;;;;7.10;3.20;;;;;;;-0.08;100.00;101267.66;5035391;28;20029;-73
2021/04/11 02:45:14;;;;;;;8.00;4.28;;;;;;;-0.04;100.00;101287.31;5035417;28;20122;-73
2021/04/11 02:47:39;;;;;;;10.70;5.43;;;;;;;-0.10;100.00;101283.19;5035529;28;20034;-73
2021/04/11 02:50:06;;;;;;;6.75;3.97;;;;;;;0.01;100.00;101295.81;5058387;28;20028;-73
2021/04/11 02:52:45;;;;;;;9.75;4.35;;;;;;;-0.20;100.00;101265.34;5056545;28;20032;-73
2021/04/11 02:55:12;;;;;;;6.78;4.10;;;;;;;-0.38;100.00;101264.84;5054923;28;20035;-73
2021/04/11 02:57:38;;;;;;;9.23;3.78;;;;;;;-0.43;100.00;101253.81;5053873;28;20025;-73
2021/04/11 03:00:17;;;;;;;5.25;3.17;;;;;;;-0.40;100.00;101302.69;5060373;28;20483;-73
2021/04/11 03:02:43;;;;;;;7.07;3.30;;;;;;;-0.61;100.00;101295.38;5072924;28;20032;-73
2021/04/11 03:05:11;;;;;;;8.95;3.58;;;;;;;-0.86;100.00;101267.53;5074888;28;20545;-73
2021/04/11 03:07:43;;;;;;;8.45;4.10;;;;;;;-0.78;100.00;101257.06;5074858;28;20054;-73
2021/04/11 03:10:16;;;;;;;16.27;9.73;;;;;;;-0.97;100.00;101218.00;5075271;28;20542;-73
2021/04/11 03:12:42;;;;;;;54.15;31.98;;;;;;;-0.28;100.00;101305.00;5073098;28;20036;-73
2021/04/11 03:15:09;;;;;;;10.43;4.93;;;;;;;-0.35;100.00;101308.59;5074739;28;20025;-73
2021/04/11 03:17:35;;;;;;;9.82;5.55;;;;;;;-0.73;100.00;101275.88;5074660;28;20037;-73
2021/04/11 03:20:07;;;;;;;16.45;7.72;;;;;;;-0.43;100.00;101314.78;5034643;28;20029;-73
2021/04/11 03:22:33;;;;;;;11.52;4.22;;;;;;;-0.49;100.00;101326.03;5051993;28;20031;-73
2021/04/11 03:24:58;;;;;;;6.18;3.95;;;;;;;-0.70;100.00;101280.13;5074558;28;20082;-73
2021/04/11 03:27:36;;;;;;;5.88;3.63;;;;;;;-0.85;100.00;101240.91;5073036;28;20021;-73
2021/04/11 03:30:05;;;;;;;10.02;5.70;;;;;;;-0.31;100.00;101317.94;5072927;28;20032;-73
2021/04/11 03:32:35;;;;;;;15.30;8.25;;;;;;;-0.27;100.00;101318.72;5073188;28;20028;-73
2021/04/11 03:35:05;;;;;;;12.57;7.10;;;;;;;-0.29;100.00;101307.63;5073076;28;20071;-73
2021/04/11 03:37:34;;;;;;;10.55;6.68;;;;;;;-0.26;100.00;101318.72;5072881;28;20017;-73
2021/04/11 03:40:00;;;;;;;10.75;6.15;;;;;;;-0.56;100.00;101319.31;5072899;28;20103;-73
2021/04/11 03:42:29;;;;;;;16.77;6.03;;;;;;;-0.60;100.00;101299.66;5071488;28;20032;-73
2021/04/11 03:44:56;;;;;;;7.20;3.78;;;;;;;-0.88;100.00;101292.44;5073975;28;20029;-73
2021/04/11 03:47:54;;;;;;;10.15;5.50;;;;;;;-0.86;100.00;101337.03;5074380;28;20078;-73
2021/04/11 03:50:28;;;;;;;55.03;34.50;;;;;;;-0.94;100.00;101341.47;5070048;28;20044;-73
2021/04/11 03:53:08;;;;;;;44.83;28.58;;;;;;;-0.92;100.00;101337.13;5074196;28;20032;-73
2021/04/11 03:55:38;;;;;;;;;;;;;;;-1.01;100.00;101339.88;5074445;28;20083;-73
2021/04/11 03:58:07;;;;;;;15.07;8.45;;;;;;;-0.99;100.00;101341.53;5073791;28;20368;-73
2021/04/11 04:00:40;;;;;;;8.80;4.75;;;;;;;-1.01;100.00;101350.16;5073919;28;20020;-73
2021/04/11 04:03:13;;;;;;;15.30;7.78;;;;;;;-1.29;100.00;101311.16;5074117;28;20032;-73
2021/04/11 04:05:40;;;;;;;10.52;6.35;;;;;;;-1.01;100.00;101357.88;5073983;28;20049;-73
2021/04/11 04:08:06;;;;;;;13.95;8.75;;;;;;;-1.11;100.00;101310.88;5073643;28;20020;-73
2021/04/11 04:10:39;;;;;;;7.80;4.57;;;;;;;-0.79;100.00;101364.34;5073696;28;20115;-73
2021/04/11 04:13:04;;;;;;;13.20;4.95;;;;;;;-0.79;100.00;101364.34;5073637;28;20532;-73
2021/04/11 04:15:39;;;;;;;10.68;5.47;;;;;;;-0.83;100.00;101356.72;5073670;28;20036;-73
2021/04/11 04:18:35;;;;;;;9.98;5.80;;;;;;;-1.07;100.00;101355.41;5073522;28;20043;-73
2021/04/11 04:21:26;;;;;;;12.18;6.25;;;;;;;-0.85;100.00;101364.44;5073320;28;20039;-73
2021/04/11 04:24:20;;;;;;;9.23;6.88;;;;;;;-0.78;100.00;101329.16;5073491;28;20097;-73
2021/04/11 04:26:50;;;;;;;12.20;4.95;;;;;;;-0.23;100.00;101374.50;5073322;28;20468;-73
2021/04/11 04:29:32;;;;;;;7.60;4.70;;;;;;;-0.16;100.00;101331.41;5073300;28;20498;-73
2021/04/11 04:32:06;;;;;;;8.43;6.05;;;;;;;0.44;100.00;101372.22;5073216;28;20035;-73
2021/04/11 04:34:47;;;;;;;41.88;23.42;;;;;;;0.78;100.00;101366.31;5073154;28;20035;-73
2021/04/11 04:37:25;;;;;;;9.63;5.65;;;;;;;1.12;100.00;101368.91;5061650;28;20028;-73
2021/04/11 04:39:54;;;;;;;9.13;5.07;;;;;;;1.25;100.00;101369.41;5050433;28;20024;-73
2021/04/11 04:42:38;;;;;;;7.47;4.80;;;;;;;1.59;100.00;101364.22;5052495;28;20100;-73
2021/04/11 04:45:13;;;;;;;8.13;5.30;;;;;;;1.83;100.00;101370.44;5051494;28;20024;-73
2021/04/11 04:47:59;;;;;;;11.52;9.00;;;;;;;1.93;100.00;101366.72;5050849;28;20503;-74
2021/04/11 04:50:33;;;;;;;14.27;7.50;;;;;;;2.36;100.00;101376.66;5052956;28;20025;-73
2021/04/11 04:53:26;;;;;;;13.18;6.53;;;;;;;2.69;100.00;101379.06;5052874;28;20032;-74
2021/04/11 04:55:55;;;;;;;16.67;11.27;;;;;;;2.89;100.00;101370.69;5052802;28;20447;-74
2021/04/11 04:58:26;;;;;;;20.52;12.93;;;;;;;2.83;100.00;101355.34;5052788;28;20028;-73
2021/04/11 05:00:57;;;;;;;9.43;5.38;;;;;;;3.08;98.34;101378.72;5053204;28;20392;-73
2021/04/11 05:03:36;;;;;;;11.00;5.10;;;;;;;3.25;95.57;101372.97;5051651;28;20101;-73
2021/04/11 05:06:11;;;;;;;11.55;6.60;;;;;;;3.43;93.79;101382.69;5052549;28;20072;-73
2021/04/11 05:08:56;;;;;;;13.27;7.95;;;;;;;3.61;95.29;101373.44;5052655;28;20021;-73
2021/04/11 05:11:47;;;;;;;17.90;9.57;;;;;;;4.14;90.30;101382.75;5052593;28;20036;-73
2021/04/11 05:14:22;;;;;;;13.55;7.65;;;;;;;4.56;86.24;101374.25;5054471;28;20029;-73
2021/04/11 05:16:54;;;;;;;13.52;7.38;;;;;;;4.89;83.49;101382.41;5053045;28;20028;-73
2021/04/11 05:19:24;;;;;;;13.73;6.80;;;;;;;5.04;81.38;101352.38;5053193;28;20029;-73
2021/04/11 05:21:57;;;;;;;14.40;7.35;;;;;;;5.41;80.04;101378.50;5052724;28;20037;-73
2021/04/11 05:24:28;;;;;;;20.30;9.65;;;;;;;5.62;79.35;101375.91;5052691;28;20025;-73
2021/04/11 05:27:08;;;;;;;22.13;12.95;;;;;;;5.88;78.67;101382.56;5051231;28;20425;-73
2021/04/11 05:29:58;;;;;;;16.75;7.90;;;;;;;5.72;77.87;101366.78;5052555;28;20036;-73
2021/04/11 05:32:24;;;;;;;14.13;8.70;;;;;;;6.14;77.63;101387.47;5052496;28;20025;-69
2021/04/11 05:34:50;;;;;;;16.02;8.07;;;;;;;6.27;76.14;101364.31;5052364;28;20051;-70
2021/04/11 05:38:08;;;;;;;16.67;7.85;;;;;;;6.56;75.31;101385.53;5052485;28;20052;-69
2021/04/11 05:40:39;;;;;;;16.95;7.38;;;;;;;6.69;73.99;101391.84;5028562;28;20461;-70
2021/04/11 05:43:13;;;;;;;13.25;7.15;;;;;;;7.15;73.80;101389.59;5052476;28;20458;-72
2021/04/11 05:45:43;;;;;;;16.92;6.63;;;;;;;7.48;69.75;101396.66;5052317;28;20065;-72
2021/04/11 05:48:27;;;;;;;13.60;7.25;;;;;;;7.94;70.24;101399.50;5050885;28;20029;-72
2021/04/11 05:51:04;;;;;;;15.10;6.65;;;;;;;8.14;69.12;101395.84;5054155;28;20105;-72
2021/04/11 05:53:35;;;;;;;13.18;7.15;;;;;;;7.73;67.28;101317.97;5056503;28;20056;-72
2021/04/11 05:56:06;;;;;;;14.52;6.88;;;;;;;8.33;67.72;101380.00;5056390;28;20048;-72
2021/04/11 05:58:56;;;;;;;12.63;7.65;;;;;;;8.66;69.09;101356.41;5052227;28;20025;-72
2021/04/11 06:01:27;;;;;;;11.23;6.47;;;;;;;8.78;62.51;101347.88;5051705;28;21344;-72
2021/04/11 06:04:07;;;;;;;12.98;6.65;;;;;;;9.08;62.76;101341.78;5052310;28;20025;-72
2021/04/11 06:06:39;;;;;;;11.90;6.53;;;;;;;9.21;63.45;101343.63;5051784;28;20462;-72
2021/04/11 06:09:26;;;;;;;9.77;5.57;;;;;;;9.61;60.81;101377.84;5066410;28;20063;-72
2021/04/11 06:12:11;;;;;;;16.10;6.35;;;;;;;9.98;63.43;101367.75;5051994;28;20037;-72
2021/04/11 06:14:53;;;;;;;13.20;7.50;;;;;;;10.29;57.55;101347.53;5052950;28;20025;-71
2021/04/11 06:17:19;;;;;;;10.70;7.30;;;;;;;10.44;51.38;101362.28;5053355;28;20025;-71
2021/04/11 06:19:47;;;;;;;12.85;7.28;;;;;;;10.60;50.47;101336.75;5053309;28;20487;-71
2021/04/11 06:22:18;;;;;;;10.48;7.28;;;;;;;10.84;50.35;101365.78;5052824;28;20108;-71
2021/04/11 06:25:13;;;;;;;13.27;8.75;;;;;;;11.13;50.79;101367.41;5052977;28;20082;-71
2021/04/11 06:28:01;;;;;;;13.15;8.88;;;;;;;11.18;50.61;101368.78;5049195;28;20041;-71
2021/04/11 06:30:38;;;;;;;11.45;7.28;;;;;;;11.16;52.09;101343.59;5052754;28;20041;-71
2021/04/11 06:33:09;;;;;;;24.25;6.90;;;;;;;11.56;46.68;101366.19;5052067;28;20492;-71
2021/04/11 06:35:42;;;;;;;29.20;8.35;;;;;;;11.74;49.00;101371.13;5051871;28;20036;-70
2021/04/11 06:38:12;;;;;;;17.45;7.38;;;;;;;11.73;47.29;101344.00;5052318;28;20029;-70
2021/04/11 06:40:54;;;;;;;13.43;6.10;;;;;;;11.65;46.95;101350.75;5052747;28;20040;-70
2021/04/11 06:43:29;;;;;;;24.80;7.55;;;;;;;11.98;47.29;101379.97;5050992;28;20029;-70
2021/04/11 06:46:03;;;;;;;14.75;6.88;;;;;;;12.37;48.76;101364.94;5052534;28;20090;-70
2021/04/11 06:48:50;;;;;;;26.48;8.52;;;;;;;12.24;46.79;101382.53;5050830;28;20021;-70
2021/04/11 06:51:18;;;;;;;17.15;6.53;;;;;;;11.65;48.81;101382.28;5052478;28;20090;-71
2021/04/11 06:54:14;;;;;;;19.23;6.97;;;;;;;12.12;47.08;101389.50;5051556;28;20750;-70
2021/04/11 06:56:46;;;;;;;35.08;6.53;;;;;;;12.62;48.21;101400.81;5051276;28;20045;-71
2021/04/11 06:59:15;;;;;;;19.63;6.65;;;;;;;12.96;47.39;101396.56;5051818;28;20037;-71
2021/04/11 07:02:03;;;;;;;22.13;6.13;;;;;;;12.95;44.77;101394.84;5051798;28;21792;-71
2021/04/11 07:04:44;;;;;;;17.83;5.95;;;;;;;13.26;44.47;101394.41;5048037;28;20053;-70
2021/04/11 07:07:41;;;;;;;18.33;6.35;;;;;;;13.18;41.78;101394.94;5066080;28;20428;-70
2021/04/11 07:10:33;;;;;;;28.52;7.90;;;;;;;13.50;43.14;101396.97;5051345;28;20569;-69
2021/04/11 07:13:33;;;;;;;17.25;6.82;;;;;;;13.68;44.33;101398.19;5044241;28;20065;-70
2021/04/11 07:16:32;;;;;;;15.75;6.72;;;;;;;13.56;46.08;101394.69;5046938;28;20033;-71
2021/04/11 07:19:35;;;;;;;22.05;11.30;;;;;;;13.44;45.78;101393.84;5051242;28;20039;-70
2021/04/11 07:22:31;;;;;;;12.27;6.30;;;;;;;13.89;45.57;101395.69;5048308;28;20420;-70
2021/04/11 07:25:00;;;;;;;14.40;5.78;;;;;;;14.05;42.31;101392.69;5050602;28;20043;-69
2021/04/11 07:27:28;;;;;;;14.35;5.72;;;;;;;13.93;40.81;101383.94;5051684;28;20163;-70
2021/04/11 07:30:15;;;;;;;17.52;7.32;;;;;;;14.02;40.54;101392.94;5047415;28;20104;-69
2021/04/11 07:33:00;;;;;;;11.38;7.18;;;;;;;13.92;42.61;101395.44;5050059;28;20419;-69
2021/04/11 07:35:43;;;;;;;14.68;6.88;;;;;;;14.23;45.29;101395.66;5048999;28;20089;-69
2021/04/11 07:38:30;;;;;;;12.50;7.10;;;;;;;14.17;44.17;101400.50;5051609;28;20032;-69
2021/04/11 07:41:04;;;;;;;13.65;6.15;;;;;;;14.59;42.66;101386.66;5049851;28;20044;-70
2021/04/11 07:43:51;;;;;;;18.73;10.93;;;;;;;14.75;42.69;101379.16;5051475;28;20098;-69
2021/04/11 07:47:04;;;;;;;13.00;6.68;;;;;;;15.14;41.25;101384.72;5051200;28;20020;-70
2021/04/11 07:49:59;;;;;;;17.17;6.55;;;;;;;15.24;39.39;101377.72;5039227;28;20126;-69
2021/04/11 07:53:09;;;;;;;14.32;6.85;;;;;;;15.12;40.18;101384.03;5034481;28;20029;-69
2021/04/11 07:56:00;;;;;;;14.57;6.18;;;;;;;15.33;36.96;101378.75;5042322;28;20041;-69
2021/04/11 07:58:48;;;;;;;15.23;7.53;;;;;;;15.20;38.53;101386.88;5045012;28;20033;-69
2021/04/11 08:01:51;;;;;;;16.33;9.40;;;;;;;15.61;38.92;101385.16;5050852;28;20526;-69
2021/04/11 08:04:52;;;;;;;13.27;5.07;;;;;;;14.37;37.02;101376.94;5044158;28;20068;-69
2021/04/11 08:07:24;;;;;;;11.68;5.22;;;;;;;14.12;40.35;101380.72;5050819;28;20124;-69
2021/04/11 08:10:26;;;;;;;9.40;4.50;;;;;;;13.78;36.85;101386.00;5050910;28;20043;-69
2021/04/11 08:12:57;;;;;;;9.85;4.60;;;;;;;13.71;40.61;101379.53;5041410;28;20442;-69
2021/04/11 08:15:30;;;;;;;11.88;5.22;;;;;;;13.85;38.18;101360.84;5050756;28;20140;-69
2021/04/11 08:18:14;;;;;;;7.80;4.65;;;;;;;14.09;41.26;101383.59;5050907;28;20025;-68
2021/04/11 08:21:04;;;;;;;14.73;4.53;;;;;;;14.50;40.26;101377.66;5050653;28;20499;-69
2021/04/11 08:24:07;;;;;;;14.48;5.60;;;;;;;15.12;38.98;101376.13;5047778;28;20033;-69
2021/04/11 08:26:35;;;;;;;14.57;4.95;;;;;;;15.44;38.24;101372.56;5042016;28;20490;-69
2021/04/11 08:29:42;;;;;;;11.50;6.03;;;;;;;15.80;34.26;101379.19;5050210;28;20059;-70
2021/04/11 08:32:26;;;;;;;15.65;4.82;;;;;;;15.70;32.29;101373.03;5038307;28;20034;-69
2021/04/11 08:35:13;;;;;;;8.52;4.28;;;;;;;15.90;33.06;101368.66;5049702;28;20107;-70
2021/04/11 08:38:02;;;;;;;13.43;5.22;;;;;;;16.20;34.37;101371.25;5050351;28;20499;-69
2021/04/11 08:40:46;;;;;;;11.85;4.55;;;;;;;16.13;34.24;101359.53;5050671;28;20434;-69
2021/04/11 08:43:23;;;;;;;8.98;4.25;;;;;;;16.13;35.54;101327.81;5046831;28;20042;-69
2021/04/11 08:46:07;;;;;;;9.23;3.50;;;;;;;16.46;33.17;101366.28;5050279;28;20053;-69
2021/04/11 08:48:38;;;;;;;10.13;4.20;;;;;;;15.91;34.97;101322.72;5050333;28;20025;-68
2021/04/11 08:51:26;;;;;;;8.13;4.15;;;;;;;16.27;33.40;101331.88;5049883;28;20128;-69
2021/04/11 08:54:16;;;;;;;8.73;4.72;;;;;;;16.58;35.81;101356.41;5050089;28;20492;-69
2021/04/11 08:56:52;;;;;;;10.98;4.65;;;;;;;16.76;35.45;101333.59;5050403;28;20083;-68
2021/04/11 09:00:01;;;;;;;7.40;4.15;;;;;;;17.10;33.32;101335.78;5050069;28;20411;-69
2021/04/11 09:02:53;;;;;;;8.30;4.03;;;;;;;17.15;34.19;101325.63;5039374;28;20424;-69
2021/04/11 09:05:45;;;;;;;8.75;3.75;;;;;;;17.12;33.90;101340.97;5019421;28;20045;-69
2021/04/11 09:08:29;;;;;;;7.75;3.25;;;;;;;16.40;33.01;101321.00;5045059;28;20036;-70
2021/04/11 09:11:48;;;;;;;8.57;3.97;;;;;;;15.78;33.00;101338.81;5050285;28;20466;-70
2021/04/11 09:14:26;;;;;;;10.03;3.93;;;;;;;15.74;34.76;101343.53;5044105;28;20115;-69
2021/04/11 09:17:06;;;;;;;7.78;3.63;;;;;;;15.97;35.70;101343.34;5048111;28;20697;-69
2021/04/11 09:19:37;;;;;;;7.63;3.92;;;;;;;15.70;36.38;101299.84;5046394;28;20040;-69
2021/04/11 09:22:08;;;;;;;13.63;4.53;;;;;;;15.78;36.15;101334.38;5049571;28;20448;-69
2021/04/11 09:24:44;;;;;;;6.57;4.10;;;;;;;15.03;35.26;101263.38;5048027;28;20546;-69
2021/04/11 09:27:34;;;;;;;9.38;4.75;;;;;;;15.82;36.46;101324.38;5049969;28;20487;-69
2021/04/11 09:30:11;;;;;;;22.90;15.98;;;;;;;15.21;34.65;101293.47;5049663;28;20033;-68
2021/04/11 09:32:49;;;;;;;13.93;8.05;;;;;;;15.20;35.84;101328.78;5049542;28;20029;-69
2021/04/11 09:35:29;;;;;;;15.13;3.90;;;;;;;15.06;35.72;101318.53;5049314;28;20119;-68
2021/04/11 09:38:17;;;;;;;10.30;3.85;;;;;;;15.32;36.33;101324.25;5048792;28;20583;-69
2021/04/11 09:41:09;;;;;;;12.43;3.35;;;;;;;15.71;35.89;101322.66;5044295;28;20036;-68
2021/04/11 09:43:58;;;;;;;7.50;3.10;;;;;;;15.41;35.97;101317.34;5048195;28;20068;-68
2021/04/11 09:46:26;;;;;;;7.97;3.17;;;;;;;15.31;36.91;101319.94;5049279;28;20032;-68
2021/04/11 09:49:31;;;;;;;11.55;3.33;;;;;;;15.20;35.16;101317.38;5049383;28;20033;-68
2021/04/11 09:51:59;;;;;;;9.18;3.45;;;;;;;15.09;36.14;101276.88;5049068;28;20036;-68
2021/04/11 09:54:40;;;;;;;9.38;3.25;;;;;;;15.39;36.97;101319.28;5064690;28;20090;-68
2021/04/11 09:57:24;;;;;;;11.07;3.42;;;;;;;15.48;36.15;101321.97;5049201;28;20415;-68
2021/04/11 10:00:11;;;;;;;6.70;3.25;;;;;;;15.53;36.38;101318.94;5049358;28;20593;-68
2021/04/11 10:02:44;;;;;;;5.90;2.70;;;;;;;15.23;36.93;101320.59;5043192;28;20132;-68
2021/04/11 10:05:31;;;;;;;6.63;2.80;;;;;;;15.67;34.52;101313.34;5048485;28;20060;-68
2021/04/11 10:08:29;;;;;;;4.10;2.80;;;;;;;15.21;36.84;101319.88;5043657;28;20112;-68
2021/04/11 10:11:17;;;;;;;4.35;2.50;;;;;;;14.00;36.57;101279.72;5043694;28;20029;-68
2021/04/11 10:14:19;;;;;;;8.20;2.78;;;;;;;14.80;36.30;101299.59;5048935;28;20037;-68
2021/04/11 10:17:15;;;;;;;5.72;3.40;;;;;;;15.28;38.13;101299.06;5049056;28;20021;-68
2021/04/11 10:20:02;;;;;;;6.03;3.17;;;;;;;15.42;37.31;101297.88;5043710;28;20053;-68
2021/04/11 10:22:40;;;;;;;6.00;2.60;;;;;;;15.79;36.99;101267.34;5047224;28;20056;-69
2021/04/11 10:25:29;;;;;;;9.82;3.15;;;;;;;16.16;35.43;101290.50;5045632;28;20446;-68
2021/04/11 10:28:00;;;;;;;4.70;2.75;;;;;;;16.72;36.64;101278.41;5049159;28;20031;-68
2021/04/11 10:30:27;;;;;;;7.47;2.95;;;;;;;16.60;34.56;101253.88;5049089;28;20076;-68
2021/04/11 10:33:13;;;;;;;7.53;2.67;;;;;;;16.67;36.02;101267.38;5048666;28;20029;-68
2021/04/11 10:35:56;;;;;;;5.90;2.55;;;;;;;16.59;37.73;101277.84;5048077;28;20035;-68
2021/04/11 10:39:01;;;;;;;5.80;2.38;;;;;;;16.13;35.22;101274.06;5052858;28;20029;-68
2021/04/11 10:42:13;;;;;;;7.45;3.40;;;;;;;16.50;36.80;101279.50;5043902;28;20551;-68
2021/04/11 10:44:58;;;;;;;6.03;2.53;;;;;;;16.35;33.52;101273.81;5010442;28;20033;-69
2021/04/11 10:48:01;;;;;;;5.78;2.28;;;;;;;15.86;35.20;101277.34;5007704;28;20041;-69
2021/04/11 10:50:49;;;;;;;6.82;2.70;;;;;;;15.75;35.49;101276.50;5044144;28;20041;-67
2021/04/11 10:53:42;;;;;;;35.17;3.38;;;;;;;16.31;36.14;101275.06;5050415;28;20040;-68
2021/04/11 10:56:13;;;;;;;4.85;2.00;;;;;;;15.66;33.13;101274.66;5049661;28;20454;-65
2021/04/11 10:59:16;;;;;;;5.90;2.40;;;;;;;16.19;34.05;101266.41;5052324;28;20076;-65
2021/04/11 11:02:08;;;;;;;4.95;2.38;;;;;;;16.71;32.90;101264.34;5051516;28;20041;-66
2021/04/11 11:04:58;;;;;;;5.70;2.00;;;;;;;17.26;34.69;101263.69;5051640;28;20447;-71
2021/04/11 11:07:29;;;;;;;;;;;;;;;17.50;32.72;101262.31;5051773;28;20075;-69
2021/04/11 11:10:28;;;;;;;5.20;2.83;;;;;;;17.65;33.04;101243.16;5066135;28;20400;-69
2021/04/11 11:13:14;;;;;;;241.48;22.02;;;;;;;17.58;30.49;101251.81;5046766;28;20129;-69
2021/04/11 11:16:07;;;;;;;6.03;2.50;;;;;;;18.00;30.39;101241.56;5051280;28;20037;-68
2021/04/11 11:18:49;;;;;;;8.45;2.42;;;;;;;18.11;30.34;101238.69;5050485;28;20025;-68
2021/04/11 11:21:27;;;;;;;5.45;2.45;;;;;;;18.10;30.75;101237.03;5050692;28;20037;-68
2021/04/11 11:24:16;;;;;;;5.65;2.40;;;;;;;17.36;29.26;101181.50;5052092;28;20047;-68
2021/04/11 11:27:15;;;;;;;4.65;2.20;;;;;;;17.80;31.29;101246.16;5051954;28;20036;-68
2021/04/11 11:29:51;;;;;;;7.10;2.60;;;;;;;17.88;29.98;101213.56;5051408;28;20039;-68
2021/04/11 11:32:22;;;;;;;5.63;2.08;;;;;;;17.72;31.25;101235.44;5048099;28;20124;-68
2021/04/11 11:35:03;;;;;;;3.30;1.90;;;;;;;17.18;30.45;101177.00;5051681;28;20416;-69
2021/04/11 11:37:45;;;;;;;3.60;1.80;;;;;;;17.84;29.32;101222.81;5051174;28;20071;-68
2021/04/11 11:40:32;;;;;;;5.88;2.30;;;;;;;17.70;29.66;101224.97;5051390;28;20155;-68
2021/04/11 11:43:06;;;;;;;6.57;2.78;;;;;;;17.51;28.92;101224.22;5051187;28;20041;-69
2021/04/11 11:46:03;;;;;;;6.40;2.40;;;;;;;17.85;29.24;101216.53;5048056;28;20491;-69
2021/04/11 11:48:52;;;;;;;5.20;2.10;;;;;;;17.99;29.53;101212.53;5050671;28;20033;-69
2021/04/11 11:51:42;;;;;;;4.85;2.55;;;;;;;17.58;28.26;101220.88;5051332;28;20455;-68
2021/04/11 11:54:45;;;;;;;4.60;1.88;;;;;;;18.05;29.27;101206.63;5051212;28;20115;-69
2021/04/11 11:57:24;;;;;;;5.43;2.75;;;;;;;18.03;30.47;101205.94;5049424;28;20036;-69
2021/04/11 12:00:26;;;;;;;6.68;2.17;;;;;;;17.32;27.88;101199.53;5051347;28;20036;-68
2021/04/11 12:03:09;;;;;;;5.32;2.10;;;;;;;17.44;29.51;101195.66;5046784;28;20037;-69
2021/04/11 12:06:04;;;;;;;5.28;1.70;;;;;;;17.60;29.75;101165.88;5051011;28;20045;-68
2021/04/11 12:08:43;;;;;;;5.13;2.25;;;;;;;17.58;27.75;101130.75;5049902;28;20033;-69
2021/04/11 12:11:17;;;;;;;3.67;1.92;;;;;;;17.73;29.80;101162.88;5046831;28;20036;-69
2021/04/11 12:13:59;;;;;;;6.05;1.80;;;;;;;17.77;29.26;101166.09;5050462;28;20045;-68